Etusivu
METAR-TAF:

METAR-TAF

Lentoasemat :

Nantesin kansainvälinen lentoasema

Nantes, Ranska

Leveyspiiri: 47-10N, Pituuspiiri: 001-36W, korkeus merenpinnasta: 27 m

Tämänhetkinen sää

Tämä raportti tehtiin 24 minuuttia sitten, kello 04.00 UTC
Tuuli 4 kn koillisesta, vaihdellen pohjoisen ja idän/koillisen välillä
Lämpötila 10°C
Kosteus 82%
Ilmanpaine 1026 hPa
Näkyvyys: 7000 m

METAR: LFRS 210400Z AUTO 04004KT 360V070 7000 NSC 10/07 Q1026 NOSIG

Aika: 06:24 (04:24 UTC)

Sääennuste

Tämä raportti tehtiin 5 tuntia ja 24 minuuttia sitten, kello 23.00 UTC
Ennuste voimassa 21. päivästä klo 00 UTC - 22. päivään klo 06 UTC
Tuuli 7 kn koillisesta
Näkyvyys 10 km tai enemmän
ei pilviä alle 1500 m:ssä eikä cumulonimbus-pilviä
Todennäköisyys 30% :
Ajoittain
22. päivästä klo 00 UTC - 22. päivään klo 06 UTC
Näkyvyys: 3000 m
Hajonneita pilviä 400 ft:n korkeudessa
utua

TAF: LFRS 202300Z 2100/2206 05007KT CAVOK PROB30 TEMPO 2200/2206 3000 BR BKN004

Säähavainnot ja -ennusteet yli 4000 lentoasemalta (METAR- ja TAF-raportit).

Käytössä olevat sääasemat on merkitty karttaan keltaisilla ja punaisilla pisteillä.

Aseta hiiri pisteen päälle nähdäksesi sääaseman nimen.

Klikkaa sitten nähdäksesi säähavainnot ja -ennusteet.

Kartan vaihtaminen: klikkaa mustalla rastilla varustettuja vihreitä pisteitä, niin voit zoomata sisään; viivalla varustettua vihreää pistettä, niin voit zoomata ulos tai vihreitä nuolia, niin pääset viereisille kartoille.


METAR-TAF: